createdAt,value
2018-10-21T00:01:38.896Z,17.80
2018-10-21T00:04:06.993Z,16.90
2018-10-21T00:06:35.150Z,16.00
2018-10-21T00:09:03.930Z,12.60
2018-10-21T00:11:32.016Z,15.73
2018-10-21T00:14:00.076Z,14.67
2018-10-21T00:16:28.170Z,13.57
2018-10-21T00:18:56.307Z,11.10
2018-10-21T00:21:24.417Z,15.43
2018-10-21T00:23:52.476Z,17.30
2018-10-21T00:26:20.556Z,19.40
2018-10-21T00:28:48.635Z,11.90
2018-10-21T00:31:16.776Z,16.57
2018-10-21T00:33:44.852Z,19.50
2018-10-21T00:36:12.906Z,14.23
2018-10-21T00:38:41.288Z,13.23
2018-10-21T00:41:09.565Z,15.33
2018-10-21T00:43:37.723Z,13.87
2018-10-21T00:46:05.988Z,13.47
2018-10-21T00:48:34.096Z,16.57
2018-10-21T00:51:02.471Z,12.57
2018-10-21T00:53:30.513Z,9.27
2018-10-21T00:55:58.585Z,10.63
2018-10-21T00:58:26.746Z,14.13
2018-10-21T01:00:54.903Z,10.73
2018-10-21T01:03:22.938Z,11.33
2018-10-21T01:05:50.981Z,10.50
2018-10-21T01:08:19.055Z,14.93
2018-10-21T01:10:47.217Z,13.67
2018-10-21T01:13:15.316Z,13.83
2018-10-21T01:15:43.437Z,15.30
2018-10-21T01:18:11.502Z,13.90
2018-10-21T01:20:39.570Z,14.67
2018-10-21T01:23:07.694Z,18.57
2018-10-21T01:25:35.778Z,14.87
2018-10-21T01:28:03.966Z,10.87
2018-10-21T01:30:32.068Z,11.20
2018-10-21T01:33:00.167Z,12.60
2018-10-21T01:35:28.309Z,11.47
2018-10-21T01:37:56.506Z,11.53
2018-10-21T01:40:32.231Z,19.10
2018-10-21T01:43:00.651Z,16.17
2018-10-21T01:45:28.749Z,19.03
2018-10-21T01:47:58.320Z,15.97
2018-10-21T01:50:26.374Z,17.27
2018-10-21T01:52:55.584Z,21.17
2018-10-21T01:55:23.864Z,28.63
2018-10-21T01:57:51.921Z,19.17
2018-10-21T02:00:20.077Z,18.03
2018-10-21T02:02:48.183Z,18.13
2018-10-21T02:05:16.242Z,21.37
2018-10-21T02:07:44.328Z,17.73
2018-10-21T02:10:12.404Z,18.07
2018-10-21T02:12:40.514Z,21.47
2018-10-21T02:15:09.688Z,18.47
2018-10-21T02:17:37.821Z,19.13
2018-10-21T02:20:06.481Z,18.17
2018-10-21T02:22:34.660Z,16.90
2018-10-21T02:25:02.875Z,25.37
2018-10-21T02:27:30.986Z,17.77
2018-10-21T02:29:59.092Z,20.27
2018-10-21T02:32:27.183Z,18.33
2018-10-21T02:34:55.287Z,18.50
2018-10-21T02:37:23.418Z,19.20
2018-10-21T02:39:51.506Z,14.60
2018-10-21T02:42:19.631Z,22.43
2018-10-21T02:44:47.775Z,21.40
2018-10-21T02:47:15.829Z,18.70
2018-10-21T02:49:43.904Z,16.83
2018-10-21T02:52:12.669Z,19.63
2018-10-21T02:54:40.781Z,15.50
2018-10-21T02:57:10.444Z,14.10
2018-10-21T02:59:38.567Z,16.10
2018-10-21T03:02:06.933Z,25.17
2018-10-21T03:04:35.658Z,13.17
2018-10-21T03:07:03.817Z,20.47
2018-10-21T03:09:32.205Z,15.30
2018-10-21T03:12:00.369Z,17.37
2018-10-21T03:14:28.449Z,14.30
2018-10-21T03:16:56.531Z,13.50
2018-10-21T03:19:24.709Z,12.37
2018-10-21T03:21:52.757Z,11.00
2018-10-21T03:24:20.852Z,12.83
2018-10-21T03:26:49.159Z,11.43
2018-10-21T03:29:17.276Z,11.13
2018-10-21T03:31:45.410Z,14.97
2018-10-21T03:34:14.150Z,12.63
2018-10-21T03:36:42.267Z,10.30
2018-10-21T03:39:11.012Z,9.47
2018-10-21T03:41:39.109Z,12.93
2018-10-21T03:44:07.274Z,12.93
2018-10-21T03:46:35.394Z,13.83
2018-10-21T03:49:03.519Z,9.97
2018-10-21T03:51:31.686Z,9.17
2018-10-21T03:53:59.792Z,12.47
2018-10-21T03:56:27.880Z,10.67
2018-10-21T03:58:55.990Z,5.40
2018-10-21T04:01:24.100Z,15.80
2018-10-21T04:03:52.457Z,9.50
2018-10-21T04:06:20.567Z,11.80
2018-10-21T04:08:48.627Z,18.07
2018-10-21T04:11:16.693Z,9.93
2018-10-21T04:13:44.768Z,11.43
2018-10-21T04:16:12.985Z,11.20
2018-10-21T04:18:41.057Z,11.80
2018-10-21T04:21:09.120Z,8.90
2018-10-21T04:23:37.172Z,9.83
2018-10-21T04:26:05.256Z,8.27
2018-10-21T04:28:33.347Z,10.17
2018-10-21T04:31:01.380Z,8.57
2018-10-21T04:33:45.122Z,11.53
2018-10-21T04:36:14.799Z,8.50
2018-10-21T04:38:53.977Z,9.87
2018-10-21T04:41:22.298Z,5.83
2018-10-21T04:43:50.428Z,6.77
2018-10-21T04:46:18.511Z,9.30
2018-10-21T04:48:46.590Z,8.27
2018-10-21T04:51:14.688Z,7.07
2018-10-21T04:53:42.757Z,10.00
2018-10-21T04:56:10.846Z,7.53
2018-10-21T04:58:38.941Z,8.10
2018-10-21T05:01:07.122Z,10.40
2018-10-21T05:03:35.197Z,10.87
2018-10-21T05:06:03.296Z,7.63
2018-10-21T05:08:31.418Z,10.07
2018-10-21T05:10:59.496Z,7.37
2018-10-21T05:13:27.535Z,8.43
2018-10-21T05:15:55.621Z,9.63
2018-10-21T05:18:23.698Z,9.13
2018-10-21T05:20:51.763Z,9.20
2018-10-21T05:23:19.778Z,7.40
2018-10-21T05:25:47.852Z,9.30
2018-10-21T05:28:15.917Z,8.63
2018-10-21T05:30:43.954Z,11.27
2018-10-21T05:33:12.043Z,11.97
2018-10-21T05:35:40.107Z,11.80
2018-10-21T05:38:08.260Z,9.07
2018-10-21T05:40:36.433Z,9.43
2018-10-21T05:43:05.506Z,8.77
2018-10-21T05:45:33.581Z,12.00
2018-10-21T05:48:01.690Z,11.47
2018-10-21T05:50:29.772Z,11.87
2018-10-21T05:52:57.924Z,7.00
2018-10-21T05:55:26.040Z,10.37
2018-10-21T05:57:54.704Z,17.03
2018-10-21T06:00:22.727Z,7.27
2018-10-21T06:02:50.880Z,8.57
2018-10-21T06:05:41.172Z,10.60
2018-10-21T06:08:09.673Z,11.13
2018-10-21T06:10:37.747Z,8.13
2018-10-21T06:13:06.105Z,9.67
2018-10-21T06:15:34.217Z,10.77
2018-10-21T06:18:04.525Z,8.23
2018-10-21T06:20:39.560Z,9.00
2018-10-21T06:23:08.615Z,9.43
2018-10-21T06:25:37.296Z,10.47
2018-10-21T06:28:05.748Z,8.07
2018-10-21T06:30:34.944Z,7.53
2018-10-21T06:33:03.290Z,8.43
2018-10-21T06:35:31.920Z,9.33
2018-10-21T06:38:00.688Z,11.50
2018-10-21T06:40:29.761Z,12.93
2018-10-21T06:42:58.810Z,9.83
2018-10-21T06:45:27.061Z,8.67
2018-10-21T06:47:55.055Z,12.83
2018-10-21T06:50:23.172Z,8.67
2018-10-21T06:52:51.232Z,8.13
2018-10-21T06:55:19.384Z,7.63
2018-10-21T06:57:47.579Z,8.87
2018-10-21T07:00:15.626Z,7.93
2018-10-21T07:02:43.765Z,9.57
2018-10-21T07:05:23.385Z,7.43
2018-10-21T07:07:51.876Z,8.07
2018-10-21T07:10:20.386Z,9.53
2018-10-21T07:12:48.509Z,8.80
2018-10-21T07:15:16.716Z,8.97
2018-10-21T07:17:45.072Z,6.23
2018-10-21T07:20:13.179Z,7.43
2018-10-21T07:22:42.288Z,6.27
2018-10-21T07:25:10.645Z,6.03
2018-10-21T07:27:39.218Z,5.10
2018-10-21T07:30:08.733Z,5.83
2018-10-21T07:32:37.101Z,4.60
2018-10-21T07:35:06.630Z,4.63
2018-10-21T07:37:34.760Z,4.00
2018-10-21T07:40:02.908Z,6.07
2018-10-21T07:42:31.001Z,7.00
2018-10-21T07:44:59.125Z,3.93
2018-10-21T07:47:27.174Z,3.83
2018-10-21T07:49:55.257Z,4.93
2018-10-21T07:52:23.400Z,4.07
2018-10-21T07:54:51.492Z,3.87
2018-10-21T07:57:19.633Z,7.67
2018-10-21T07:59:48.546Z,2.80
2018-10-21T08:02:16.642Z,6.77
2018-10-21T08:04:44.828Z,7.83
2018-10-21T08:07:23.930Z,2.83
2018-10-21T08:09:52.082Z,4.43
2018-10-21T08:12:20.271Z,1.97
2018-10-21T08:14:48.397Z,3.30
2018-10-21T08:17:16.430Z,2.30
2018-10-21T08:19:44.774Z,3.27
2018-10-21T08:22:12.859Z,2.37
2018-10-21T08:24:45.298Z,3.97
2018-10-21T08:27:13.443Z,1.47
2018-10-21T08:29:41.556Z,1.70
2018-10-21T08:32:09.684Z,1.60
2018-10-21T08:34:37.768Z,1.53
2018-10-21T08:37:05.907Z,2.77
2018-10-21T08:39:39.118Z,2.83
2018-10-21T08:42:07.233Z,1.63
2018-10-21T08:44:35.333Z,1.43
2018-10-21T08:47:03.395Z,1.87
2018-10-21T08:49:31.547Z,2.57
2018-10-21T08:58:59.220Z,1.23
2018-10-21T09:01:27.361Z,6.13
2018-10-21T09:03:55.512Z,1.73
2018-10-21T09:06:23.640Z,2.43
2018-10-21T09:08:56.748Z,0.87
2018-10-21T09:11:24.900Z,0.67
2018-10-21T09:13:53.029Z,0.70
2018-10-21T09:16:26.498Z,1.30
2018-10-21T09:18:54.685Z,2.10
2018-10-21T09:21:27.803Z,0.87
2018-10-21T09:23:55.843Z,1.07
2018-10-21T09:26:23.954Z,0.70
2018-10-21T09:28:52.231Z,1.10
2018-10-21T09:31:20.345Z,2.20
2018-10-21T09:33:54.331Z,0.73
2018-10-21T09:36:28.776Z,0.60
2018-10-21T09:38:56.954Z,0.50
2018-10-21T09:41:25.076Z,0.50
2018-10-21T09:43:53.224Z,0.70
2018-10-21T09:46:21.355Z,0.60
2018-10-21T09:48:49.404Z,0.57
2018-10-21T09:51:18.081Z,0.70
2018-10-21T09:53:46.277Z,0.83
2018-10-21T09:56:14.398Z,0.50
2018-10-21T09:58:42.610Z,0.60
2018-10-21T10:01:16.118Z,0.50
2018-10-21T10:03:44.236Z,0.50
2018-10-21T10:06:12.644Z,0.67
2018-10-21T10:08:40.703Z,0.57
2018-10-21T10:11:08.775Z,0.60
2018-10-21T10:13:36.945Z,0.60
2018-10-21T10:16:05.442Z,0.50
2018-10-21T10:18:33.540Z,0.50
2018-10-21T10:21:01.661Z,0.60
2018-10-21T10:23:29.853Z,1.20
2018-10-21T10:25:57.836Z,0.47
2018-10-21T10:28:25.973Z,0.63
2018-10-21T10:30:54.473Z,1.40
2018-10-21T10:33:22.625Z,0.73
2018-10-21T10:35:50.768Z,0.63
2018-10-21T10:38:18.836Z,0.50
2018-10-21T10:40:46.908Z,0.67
2018-10-21T10:43:15.115Z,0.70
2018-10-21T10:45:43.138Z,0.60
2018-10-21T10:48:11.222Z,1.23
2018-10-21T10:50:39.358Z,1.47
2018-10-21T10:53:07.656Z,0.60
2018-10-21T10:55:41.106Z,0.80
2018-10-21T10:58:09.276Z,0.77
2018-10-21T11:00:37.409Z,0.60
2018-10-21T11:03:05.581Z,0.60
2018-10-21T11:05:33.691Z,0.50
2018-10-21T11:08:01.803Z,0.50
2018-10-21T11:10:35.289Z,0.50
2018-10-21T11:13:03.558Z,0.70
2018-10-21T11:15:31.602Z,0.60
2018-10-21T11:17:59.739Z,0.50
2018-10-21T11:20:27.869Z,0.50
2018-10-21T11:22:56.024Z,1.33
2018-10-21T11:25:24.222Z,0.60
2018-10-21T11:27:52.449Z,0.43
2018-10-21T11:30:20.565Z,0.63
2018-10-21T11:32:48.738Z,0.57
2018-10-21T11:35:16.910Z,0.80
2018-10-21T11:37:47.534Z,0.77
2018-10-21T11:40:17.225Z,0.70
2018-10-21T11:42:46.014Z,1.33
2018-10-21T11:45:14.357Z,0.60
2018-10-21T11:47:43.328Z,0.82
2018-10-21T11:50:11.552Z,0.40
2018-10-21T11:52:40.812Z,0.60
2018-10-21T11:55:09.314Z,0.50
2018-10-21T11:57:37.421Z,0.60
2018-10-21T12:00:06.759Z,1.07
2018-10-21T12:02:35.039Z,0.60
2018-10-21T12:05:03.188Z,0.60
2018-10-21T12:07:31.347Z,0.88
2018-10-21T12:09:59.513Z,0.70
2018-10-21T12:12:27.663Z,0.80
2018-10-21T12:14:55.798Z,1.90
2018-10-21T12:17:23.970Z,0.70
2018-10-21T12:19:52.328Z,0.50
2018-10-21T12:22:20.624Z,0.40
2018-10-21T12:24:48.674Z,0.40
2018-10-21T12:27:16.809Z,0.50
2018-10-21T12:29:45.441Z,0.40
2018-10-21T12:32:13.608Z,0.30
2018-10-21T12:34:41.744Z,0.30
2018-10-21T12:37:10.010Z,0.53
2018-10-21T12:39:38.215Z,0.40
2018-10-21T12:42:06.332Z,0.50
2018-10-21T12:44:34.454Z,0.40
2018-10-21T12:47:03.547Z,0.40
2018-10-21T12:49:31.629Z,0.50
2018-10-21T12:51:59.758Z,0.50
2018-10-21T12:54:27.884Z,0.43
2018-10-21T12:56:55.948Z,6.80
2018-10-21T12:59:24.071Z,0.40
2018-10-21T13:01:52.194Z,0.50
2018-10-21T13:04:20.424Z,0.40
2018-10-21T13:06:48.563Z,0.50
2018-10-21T13:09:16.639Z,0.40
2018-10-21T13:11:44.789Z,0.43
2018-10-21T13:14:12.858Z,0.83
2018-10-21T13:16:40.960Z,0.43
2018-10-21T13:19:09.091Z,0.53
2018-10-21T13:21:37.144Z,0.70
2018-10-21T13:24:05.381Z,0.43
2018-10-21T13:26:33.483Z,0.80
2018-10-21T13:29:01.672Z,0.60
2018-10-21T13:31:29.773Z,0.53
2018-10-21T13:33:57.914Z,0.60
2018-10-21T13:36:26.007Z,0.53
2018-10-21T13:38:54.115Z,0.60
2018-10-21T13:41:22.739Z,0.53
2018-10-21T13:43:50.779Z,0.80
2018-10-21T13:46:18.944Z,0.53
2018-10-21T13:48:47.024Z,3.30
2018-10-21T13:51:15.157Z,0.70
2018-10-21T13:53:48.215Z,0.50
2018-10-21T13:56:16.487Z,1.17
2018-10-21T13:58:44.558Z,0.70
2018-10-21T14:01:12.731Z,0.60
2018-10-21T14:03:40.760Z,0.50
2018-10-21T14:06:08.818Z,0.93
2018-10-21T14:08:39.158Z,0.70
2018-10-21T14:11:07.253Z,0.57
2018-10-21T14:13:35.313Z,0.57
2018-10-21T14:16:03.464Z,0.70
2018-10-21T14:18:31.624Z,1.00
2018-10-21T14:20:59.887Z,2.07
2018-10-21T14:23:28.023Z,0.50
2018-10-21T14:25:56.181Z,5.53
2018-10-21T14:28:24.285Z,0.80
2018-10-21T14:30:52.517Z,1.00
2018-10-21T14:33:20.748Z,0.80
2018-10-21T14:35:49.029Z,1.00
2018-10-21T14:38:17.227Z,0.87
2018-10-21T14:40:45.285Z,5.13
2018-10-21T14:43:13.357Z,0.70
2018-10-21T14:45:41.502Z,2.47
2018-10-21T14:48:09.679Z,0.97
2018-10-21T14:50:37.675Z,0.90
2018-10-21T14:53:05.833Z,0.87
2018-10-21T14:55:33.944Z,1.10
2018-10-21T14:58:02.018Z,1.00
2018-10-21T15:00:30.164Z,1.40
2018-10-21T15:02:58.261Z,7.80
2018-10-21T15:05:26.344Z,4.00
2018-10-21T15:07:54.489Z,1.90
2018-10-21T15:10:22.641Z,2.47
2018-10-21T15:12:50.854Z,1.43
2018-10-21T15:15:18.905Z,1.00
2018-10-21T15:17:47.012Z,1.33
2018-10-21T15:20:15.228Z,1.10
2018-10-21T15:22:43.199Z,1.60
2018-10-21T15:25:12.097Z,1.43
2018-10-21T15:27:40.873Z,0.97
2018-10-21T15:30:09.901Z,1.20
2018-10-21T15:32:38.323Z,1.00
2018-10-21T15:35:06.851Z,1.00
2018-10-21T15:37:35.643Z,1.00
2018-10-21T15:40:03.826Z,2.20
2018-10-21T15:42:31.992Z,1.10
2018-10-21T15:45:00.055Z,1.00
2018-10-21T15:47:28.484Z,1.30
2018-10-21T15:49:56.636Z,1.43
2018-10-21T15:52:24.830Z,3.47
2018-10-21T15:54:53.034Z,1.47
2018-10-21T15:57:21.122Z,1.40
2018-10-21T15:59:49.207Z,1.10
2018-10-21T16:02:17.456Z,1.07
2018-10-21T16:04:45.392Z,3.57
2018-10-21T16:07:13.598Z,0.93
2018-10-21T16:09:41.675Z,3.23
2018-10-21T16:12:10.632Z,1.43
2018-10-21T16:14:38.868Z,1.53
2018-10-21T16:17:06.984Z,1.07
2018-10-21T16:19:35.087Z,4.63
2018-10-21T16:22:03.276Z,2.50
2018-10-21T16:24:31.357Z,1.40
2018-10-21T16:26:59.473Z,3.13
2018-10-21T16:29:27.568Z,2.37
2018-10-21T16:31:55.798Z,1.03
2018-10-21T16:34:23.785Z,3.37
2018-10-21T16:36:51.840Z,1.87
2018-10-21T16:39:20.060Z,2.50
2018-10-21T16:41:48.197Z,1.23
2018-10-21T16:44:16.277Z,2.53
2018-10-21T16:46:44.429Z,2.30
2018-10-21T16:49:12.533Z,2.10
2018-10-21T16:51:40.601Z,1.53
2018-10-21T16:54:08.831Z,2.00
2018-10-21T16:56:39.254Z,2.40
2018-10-21T16:59:08.015Z,1.20
2018-10-21T17:01:36.900Z,1.67
2018-10-21T17:04:05.174Z,1.30
2018-10-21T17:06:35.499Z,1.43
2018-10-21T17:09:06.273Z,1.17
2018-10-21T17:11:34.284Z,1.33
2018-10-21T17:14:02.460Z,1.37
2018-10-21T17:16:30.588Z,2.70
2018-10-21T17:18:58.703Z,2.93
2018-10-21T17:21:26.800Z,1.50
2018-10-21T17:23:54.964Z,2.43
2018-10-21T17:26:23.867Z,2.10
2018-10-21T17:28:52.089Z,1.87
2018-10-21T17:31:20.217Z,1.47
2018-10-21T17:33:48.302Z,1.30
2018-10-21T17:36:16.509Z,1.33
2018-10-21T17:38:44.938Z,1.43
2018-10-21T17:41:13.093Z,1.00
2018-10-21T17:43:41.297Z,2.03
2018-10-21T17:46:09.431Z,1.20
2018-10-21T17:48:37.481Z,2.23
2018-10-21T17:51:05.626Z,2.00
2018-10-21T17:53:35.329Z,2.57
2018-10-21T17:56:03.503Z,2.43
2018-10-21T17:58:31.833Z,1.70
2018-10-21T18:00:59.855Z,9.30
2018-10-21T18:03:28.043Z,2.33
2018-10-21T18:05:56.176Z,1.70
2018-10-21T18:08:24.316Z,11.73
2018-10-21T18:10:52.491Z,2.87
2018-10-21T18:13:21.174Z,3.67
2018-10-21T18:15:49.257Z,3.17
2018-10-21T18:18:17.378Z,4.77
2018-10-21T18:20:45.748Z,4.00
2018-10-21T18:23:13.655Z,4.63
2018-10-21T18:25:41.800Z,4.00
2018-10-21T18:28:09.867Z,6.17
2018-10-21T18:30:38.024Z,8.47
2018-10-21T18:33:06.224Z,7.27
2018-10-21T18:35:34.480Z,3.63
2018-10-21T18:38:02.565Z,6.10
2018-10-21T18:40:30.698Z,6.40
2018-10-21T18:42:58.904Z,9.63
2018-10-21T18:45:26.993Z,4.97
2018-10-21T18:47:55.102Z,9.07
2018-10-21T18:50:23.195Z,8.07
2018-10-21T18:52:51.327Z,6.07
2018-10-21T18:55:19.478Z,12.50
2018-10-21T18:57:47.541Z,24.63
2018-10-21T19:00:17.298Z,18.20
2018-10-21T19:02:45.661Z,28.67
2018-10-21T19:05:14.462Z,19.83
2018-10-21T19:07:42.765Z,13.40
2018-10-21T19:10:12.468Z,11.00
2018-10-21T19:12:40.839Z,17.47
2018-10-21T19:15:10.246Z,15.97
2018-10-21T19:17:38.718Z,45.17
2018-10-21T19:20:08.561Z,22.97
2018-10-21T19:22:36.690Z,24.03
2018-10-21T19:25:06.225Z,29.87
2018-10-21T19:27:34.257Z,24.73
2018-10-21T19:30:02.444Z,22.93
2018-10-21T19:32:30.585Z,16.20
2018-10-21T19:34:58.740Z,13.27
2018-10-21T19:37:26.849Z,14.03
2018-10-21T19:39:54.922Z,16.10
2018-10-21T19:42:23.069Z,10.93
2018-10-21T19:44:51.145Z,11.77
2018-10-21T19:47:19.294Z,10.70
2018-10-21T19:49:47.400Z,10.53
2018-10-21T19:52:15.542Z,9.00
2018-10-21T19:54:43.565Z,11.27
2018-10-21T19:57:12.201Z,6.83
2018-10-21T19:59:40.339Z,8.10
2018-10-21T20:02:08.515Z,7.47
2018-10-21T20:04:36.650Z,7.57
2018-10-21T20:07:04.943Z,10.20
2018-10-21T20:09:33.054Z,7.33
2018-10-21T20:12:01.244Z,7.23
2018-10-21T20:14:29.324Z,6.43
2018-10-21T20:16:57.384Z,8.77
2018-10-21T20:19:25.442Z,4.03
2018-10-21T20:21:54.288Z,6.63
2018-10-21T20:24:22.471Z,5.73
2018-10-21T20:26:50.519Z,6.97
2018-10-21T20:29:19.141Z,9.13
2018-10-21T20:31:47.247Z,5.63
2018-10-21T20:34:15.350Z,5.07
2018-10-21T20:36:43.389Z,5.73
2018-10-21T20:39:11.478Z,6.77
2018-10-21T20:41:39.822Z,7.77
2018-10-21T20:44:07.987Z,8.83
2018-10-21T20:46:36.133Z,6.27
2018-10-21T20:49:04.328Z,5.87
2018-10-21T20:51:32.660Z,4.90
2018-10-21T20:54:00.584Z,6.00
2018-10-21T20:56:28.653Z,7.10
2018-10-21T20:58:56.728Z,9.03
2018-10-21T21:01:24.809Z,7.53
2018-10-21T21:03:52.901Z,9.57
2018-10-21T21:06:21.051Z,7.77
2018-10-21T21:08:49.157Z,7.93
2018-10-21T21:11:17.232Z,6.60
2018-10-21T21:13:45.330Z,11.67
2018-10-21T21:16:13.449Z,6.70
2018-10-21T21:18:41.490Z,9.83
2018-10-21T21:21:09.571Z,7.70
2018-10-21T21:23:37.694Z,9.67
2018-10-21T21:26:05.825Z,7.20
2018-10-21T21:28:33.946Z,10.17
2018-10-21T21:31:02.067Z,11.47
2018-10-21T21:33:30.134Z,7.87
2018-10-21T21:35:58.209Z,9.43
2018-10-21T21:38:27.025Z,10.23
2018-10-21T21:40:55.075Z,8.93
2018-10-21T21:43:23.175Z,10.00
2018-10-21T21:45:51.288Z,9.10
2018-10-21T21:48:19.428Z,12.80
2018-10-21T21:50:47.432Z,9.83
2018-10-21T21:53:15.484Z,10.93
2018-10-21T21:55:43.646Z,9.67
2018-10-21T21:58:11.789Z,8.70
2018-10-21T22:00:39.876Z,10.43
2018-10-21T22:03:07.942Z,11.20
2018-10-21T22:05:36.032Z,10.27
2018-10-21T22:08:04.426Z,12.63
2018-10-21T22:10:32.606Z,11.10
2018-10-21T22:13:00.684Z,9.97
2018-10-21T22:15:28.772Z,11.77
2018-10-21T22:17:56.895Z,10.83
2018-10-21T22:20:24.960Z,9.33
2018-10-21T22:22:53.095Z,11.17
2018-10-21T22:25:21.168Z,9.33
2018-10-21T22:27:49.220Z,8.57
2018-10-21T22:30:17.397Z,9.37
2018-10-21T22:32:45.473Z,9.67
2018-10-21T22:35:13.529Z,10.37
2018-10-21T22:37:41.636Z,7.87
2018-10-21T22:40:09.778Z,8.60
2018-10-21T22:42:37.887Z,9.77
2018-10-21T22:45:07.502Z,7.70
2018-10-21T22:47:35.597Z,9.10
2018-10-21T22:50:04.478Z,6.00
2018-10-21T22:52:32.625Z,7.77
2018-10-21T22:55:00.700Z,7.70
2018-10-21T22:57:28.753Z,6.40
2018-10-21T22:59:56.871Z,8.13
2018-10-21T23:02:24.954Z,7.60
2018-10-21T23:04:53.003Z,8.40
2018-10-21T23:07:21.086Z,6.73
2018-10-21T23:09:49.173Z,7.00
2018-10-21T23:12:17.315Z,10.37
2018-10-21T23:14:45.482Z,6.97
2018-10-21T23:17:13.550Z,6.20
2018-10-21T23:19:47.037Z,8.63
2018-10-21T23:22:15.239Z,11.93
2018-10-21T23:24:43.218Z,6.33
2018-10-21T23:27:11.960Z,8.53
2018-10-21T23:29:40.616Z,8.17
2018-10-21T23:32:08.701Z,9.77
2018-10-21T23:34:36.806Z,8.57
2018-10-21T23:37:05.070Z,8.73
2018-10-21T23:39:33.172Z,5.67
2018-10-21T23:42:01.532Z,5.67
2018-10-21T23:44:30.138Z,4.97
2018-10-21T23:46:58.281Z,6.77
2018-10-21T23:49:26.351Z,5.07
2018-10-21T23:51:54.410Z,6.50
2018-10-21T23:54:22.492Z,8.57
2018-10-21T23:56:57.235Z,6.47
2018-10-21T23:59:25.326Z,5.23
